Time;durP1;ratioP1;P1;durP2;ratioP2;P2;SDS_P1;SDS_P2;PMS_P1;PMS_P2;Temp;Humidity;BMP_temperature;BMP_pressure;BME280_temperature;BME280_humidity;BME280_pressure;Samples;Min_cycle;Max_cycle;Signal;HPM_P1;HPM_P2
2021/09/17 00:02:22;;;;;;;4.10;1.20;;;;;;;;;;5032178;28;20035;-72
2021/09/17 00:05:07;;;;;;;2.42;1.23;;;;;;;;;;5049655;28;20082;-72
2021/09/17 00:07:51;;;;;;;2.05;0.98;;;;;;;;;;5048010;28;20079;-71
2021/09/17 00:10:36;;;;;;;3.03;1.50;;;;;;;;;;5049510;28;20072;-72
2021/09/17 00:13:21;;;;;;;2.13;1.00;;;;;;;;;;5027152;28;20176;-72
2021/09/17 00:16:05;;;;;;;2.22;1.38;;;;;;;;;;5028224;28;20560;-71
2021/09/17 00:18:50;;;;;;;2.40;1.10;;;;;;;;;;5042144;28;20107;-71
2021/09/17 00:21:34;;;;;;;2.30;1.08;;;;;;;;;;5047638;28;20086;-72
2021/09/17 00:24:19;;;;;;;1.73;1.00;;;;;;;;;;5048580;28;20044;-72
2021/09/17 00:27:03;;;;;;;3.03;1.00;;;;;;;;;;5034116;28;20047;-71
2021/09/17 00:29:48;;;;;;;3.58;1.17;;;;;;;;;;5047807;28;20061;-71
2021/09/17 00:32:33;;;;;;;3.75;1.20;;;;;;;;;;5048740;28;20097;-71
2021/09/17 00:35:18;;;;;;;2.97;1.10;;;;;;;;;;5033762;28;20097;-71
2021/09/17 00:38:04;;;;;;;2.95;1.38;;;;;;;;;;5047464;28;20063;-71
2021/09/17 00:40:48;;;;;;;3.45;1.05;;;;;;;;;;5048521;28;20090;-72
2021/09/17 00:43:33;;;;;;;1.90;1.13;;;;;;;;;;5047395;28;20638;-71
2021/09/17 00:46:18;;;;;;;1.88;0.90;;;;;;;;;;5047485;28;20040;-72
2021/09/17 00:49:03;;;;;;;1.55;0.93;;;;;;;;;;5048741;28;20078;-71
2021/09/17 00:51:48;;;;;;;3.42;1.20;;;;;;;;;;5046643;28;20651;-71
2021/09/17 00:54:34;;;;;;;2.88;1.20;;;;;;;;;;5047696;28;20032;-72
2021/09/17 00:57:19;;;;;;;3.70;1.30;;;;;;;;;;5048135;28;20044;-72
2021/09/17 01:00:07;;;;;;;3.53;1.23;;;;;;;;;;5047227;28;20109;-71
2021/09/17 01:02:52;;;;;;;2.50;1.08;;;;;;;;;;5031048;28;20567;-71
2021/09/17 01:05:37;;;;;;;1.90;1.10;;;;;;;;;;5060180;28;20119;-71
2021/09/17 01:08:21;;;;;;;2.83;1.20;;;;;;;;;;5046141;28;20547;-71
2021/09/17 01:11:06;;;;;;;2.45;1.60;;;;;;;;;;5064767;28;20086;-71
2021/09/17 01:13:50;;;;;;;1.80;1.08;;;;;;;;;;5050813;28;20449;-71
2021/09/17 01:16:35;;;;;;;2.60;1.10;;;;;;;;;;5062397;28;20145;-72
2021/09/17 01:19:19;;;;;;;3.03;1.10;;;;;;;;;;5032895;28;20501;-72
2021/09/17 01:22:05;;;;;;;2.58;1.48;;;;;;;;;;5045912;28;20069;-72
2021/09/17 01:24:50;;;;;;;3.22;1.10;;;;;;;;;;5043281;28;20048;-75
2021/09/17 01:27:35;;;;;;;3.17;1.20;;;;;;;;;;5042342;28;20063;-71
2021/09/17 01:30:20;;;;;;;3.30;1.08;;;;;;;;;;5045517;28;20398;-72
2021/09/17 01:33:04;;;;;;;1.40;0.90;;;;;;;;;;5045592;28;20043;-72
2021/09/17 01:35:56;;;;;;;2.47;1.00;;;;;;;;;;5028397;28;20039;-71
2021/09/17 01:38:41;;;;;;;1.52;1.00;;;;;;;;;;5031305;28;20048;-72
2021/09/17 01:41:26;;;;;;;2.28;1.13;;;;;;;;;;5032590;28;20067;-71
2021/09/17 01:44:10;;;;;;;2.83;1.10;;;;;;;;;;5031533;28;20048;-75
2021/09/17 01:46:54;;;;;;;3.00;1.23;;;;;;;;;;5045937;28;20159;-71
2021/09/17 01:49:39;;;;;;;3.42;1.48;;;;;;;;;;5047364;28;20040;-71
2021/09/17 01:52:23;;;;;;;2.95;1.30;;;;;;;;;;5051404;28;20123;-72
2021/09/17 01:55:08;;;;;;;2.45;1.25;;;;;;;;;;5047517;28;20123;-71
2021/09/17 01:57:53;;;;;;;3.15;1.27;;;;;;;;;;5045688;28;20102;-71
2021/09/17 02:00:38;;;;;;;2.45;1.20;;;;;;;;;;5047508;28;20059;-72
2021/09/17 02:03:23;;;;;;;4.88;1.45;;;;;;;;;;5051437;28;20044;-71
2021/09/17 02:06:07;;;;;;;1.75;1.10;;;;;;;;;;5047566;28;20039;-71
2021/09/17 02:08:52;;;;;;;1.90;1.33;;;;;;;;;;5032236;28;20110;-72
2021/09/17 02:11:36;;;;;;;2.35;0.90;;;;;;;;;;5048107;28;20090;-71
2021/09/17 02:14:22;;;;;;;2.55;1.10;;;;;;;;;;5048654;28;20043;-71
2021/09/17 02:17:06;;;;;;;2.22;1.27;;;;;;;;;;5044311;28;20059;-72
2021/09/17 02:19:51;;;;;;;2.63;1.00;;;;;;;;;;5042630;28;20485;-71
2021/09/17 02:22:36;;;;;;;3.05;1.20;;;;;;;;;;5055684;28;20065;-73
2021/09/17 02:25:21;;;;;;;3.08;1.30;;;;;;;;;;5072293;28;20060;-72
2021/09/17 02:28:05;;;;;;;2.50;1.40;;;;;;;;;;5053806;28;20398;-72
2021/09/17 02:30:50;;;;;;;3.50;1.40;;;;;;;;;;5052497;28;20052;-72
2021/09/17 02:33:34;;;;;;;3.47;1.50;;;;;;;;;;5033206;28;20044;-72
2021/09/17 02:36:19;;;;;;;2.85;1.08;;;;;;;;;;5036394;28;20063;-72
2021/09/17 02:39:03;;;;;;;3.28;1.20;;;;;;;;;;5052340;28;20067;-72
2021/09/17 02:41:48;;;;;;;3.17;1.20;;;;;;;;;;5054094;28;20074;-73
2021/09/17 02:44:32;;;;;;;2.45;1.27;;;;;;;;;;5053329;28;20524;-72
2021/09/17 02:47:17;;;;;;;3.97;1.40;;;;;;;;;;5063766;28;20063;-72
2021/09/17 02:50:01;;;;;;;2.58;1.08;;;;;;;;;;5051253;28;20040;-72
2021/09/17 02:52:46;;;;;;;4.28;1.20;;;;;;;;;;5062232;28;20085;-72
2021/09/17 02:55:31;;;;;;;3.65;1.27;;;;;;;;;;5071702;28;20162;-72
2021/09/17 02:58:15;;;;;;;3.05;1.40;;;;;;;;;;5054591;28;20060;-72
2021/09/17 03:01:00;;;;;;;3.33;1.20;;;;;;;;;;5051730;28;20090;-70
2021/09/17 03:03:44;;;;;;;2.35;1.00;;;;;;;;;;5060845;28;20039;-70
2021/09/17 03:06:29;;;;;;;2.65;1.10;;;;;;;;;;5052173;28;20040;-70
2021/09/17 03:09:13;;;;;;;2.15;1.00;;;;;;;;;;5031135;28;20193;-71
2021/09/17 03:11:58;;;;;;;3.25;1.30;;;;;;;;;;5045018;28;20048;-71
2021/09/17 03:14:42;;;;;;;2.40;1.40;;;;;;;;;;5051638;28;20043;-71
2021/09/17 03:17:27;;;;;;;2.05;1.30;;;;;;;;;;5046956;28;20047;-71
2021/09/17 03:20:12;;;;;;;2.70;1.10;;;;;;;;;;5068975;28;20090;-71
2021/09/17 03:22:56;;;;;;;1.30;0.93;;;;;;;;;;5055965;28;20381;-71
2021/09/17 03:25:41;;;;;;;2.95;1.10;;;;;;;;;;5058266;28;20674;-71
2021/09/17 03:28:26;;;;;;;1.60;1.10;;;;;;;;;;5056591;28;20090;-71
2021/09/17 03:31:11;;;;;;;2.42;1.10;;;;;;;;;;5050510;28;20124;-70
2021/09/17 03:33:58;;;;;;;1.42;1.00;;;;;;;;;;5033405;28;20053;-71
2021/09/17 03:36:43;;;;;;;2.47;0.98;;;;;;;;;;5030289;28;20142;-71
2021/09/17 03:39:27;;;;;;;2.20;1.15;;;;;;;;;;5016992;28;20076;-71
2021/09/17 03:42:11;;;;;;;2.78;1.00;;;;;;;;;;5034133;28;20082;-71
2021/09/17 03:44:56;;;;;;;2.65;1.00;;;;;;;;;;5051858;28;20059;-71
2021/09/17 03:47:41;;;;;;;1.67;0.88;;;;;;;;;;5055833;28;20047;-71
2021/09/17 03:50:25;;;;;;;3.25;0.85;;;;;;;;;;5070286;28;20083;-71
2021/09/17 03:53:10;;;;;;;2.78;1.10;;;;;;;;;;5062148;28;20048;-71
2021/09/17 03:55:54;;;;;;;1.85;1.00;;;;;;;;;;5050408;28;20040;-71
2021/09/17 03:58:39;;;;;;;1.60;1.00;;;;;;;;;;5046601;28;20036;-71
2021/09/17 04:01:24;;;;;;;2.83;1.20;;;;;;;;;;5055771;28;20500;-70
2021/09/17 04:04:08;;;;;;;1.17;0.90;;;;;;;;;;5070559;28;20165;-71
2021/09/17 04:06:53;;;;;;;1.38;0.90;;;;;;;;;;5054332;28;20048;-71
2021/09/17 04:09:37;;;;;;;1.48;0.90;;;;;;;;;;5066889;28;20036;-71
2021/09/17 04:12:22;;;;;;;2.15;1.00;;;;;;;;;;5058903;28;20448;-71
2021/09/17 04:15:06;;;;;;;1.52;0.73;;;;;;;;;;5017165;28;20037;-71
2021/09/17 04:17:51;;;;;;;1.23;0.82;;;;;;;;;;5031520;28;20044;-71
2021/09/17 04:20:35;;;;;;;1.48;0.80;;;;;;;;;;5044506;28;20044;-71
2021/09/17 04:23:20;;;;;;;2.10;0.80;;;;;;;;;;5049551;28;20043;-71
2021/09/17 04:26:05;;;;;;;1.83;0.80;;;;;;;;;;5069377;28;20048;-71
2021/09/17 04:28:50;;;;;;;1.80;0.70;;;;;;;;;;5060857;28;20485;-71
2021/09/17 04:31:35;;;;;;;1.33;0.75;;;;;;;;;;5050999;28;20128;-72
2021/09/17 04:34:19;;;;;;;1.48;0.70;;;;;;;;;;5055865;28;20044;-71
2021/09/17 04:37:04;;;;;;;1.05;0.90;;;;;;;;;;5054353;28;20060;-71
2021/09/17 04:39:49;;;;;;;1.65;0.90;;;;;;;;;;5049873;28;20086;-71
2021/09/17 04:42:33;;;;;;;1.75;0.90;;;;;;;;;;5050022;28;20094;-70
2021/09/17 04:45:18;;;;;;;1.92;0.90;;;;;;;;;;5069684;28;20423;-71
2021/09/17 04:48:09;;;;;;;1.52;0.80;;;;;;;;;;5059710;28;20111;-74
2021/09/17 04:50:54;;;;;;;1.77;0.75;;;;;;;;;;5033167;28;20047;-71
2021/09/17 04:53:39;;;;;;;1.15;0.70;;;;;;;;;;5059970;28;20101;-71
2021/09/17 04:56:24;;;;;;;1.38;0.70;;;;;;;;;;5067317;28;20555;-71
2021/09/17 04:59:09;;;;;;;1.10;0.70;;;;;;;;;;5040517;28;20094;-71
2021/09/17 05:01:53;;;;;;;0.85;0.68;;;;;;;;;;5035620;28;20047;-71
2021/09/17 05:04:38;;;;;;;1.40;0.70;;;;;;;;;;5067537;28;20539;-71
2021/09/17 05:07:23;;;;;;;0.85;0.60;;;;;;;;;;5038173;28;20039;-72
2021/09/17 05:10:09;;;;;;;0.85;0.80;;;;;;;;;;5057455;28;20039;-71
2021/09/17 05:12:54;;;;;;;0.73;0.70;;;;;;;;;;5063802;28;20091;-71
2021/09/17 05:15:38;;;;;;;1.02;0.70;;;;;;;;;;5047145;28;20080;-71
2021/09/17 05:18:23;;;;;;;1.17;0.70;;;;;;;;;;5039947;28;20409;-72
2021/09/17 05:21:08;;;;;;;1.02;0.60;;;;;;;;;;5042886;28;20591;-71
2021/09/17 05:23:52;;;;;;;1.27;0.95;;;;;;;;;;5026814;28;20513;-71
2021/09/17 05:26:36;;;;;;;0.93;0.70;;;;;;;;;;5037453;28;20031;-71
2021/09/17 05:29:21;;;;;;;1.13;0.65;;;;;;;;;;5033160;28;20083;-72
2021/09/17 05:32:06;;;;;;;0.88;0.70;;;;;;;;;;5027254;28;20533;-71
2021/09/17 05:34:51;;;;;;;1.20;0.80;;;;;;;;;;5029571;28;20131;-71
2021/09/17 05:37:35;;;;;;;2.03;0.80;;;;;;;;;;5066653;28;20064;-71
2021/09/17 05:40:20;;;;;;;1.48;0.70;;;;;;;;;;5059939;28;20052;-71
2021/09/17 05:43:05;;;;;;;1.40;0.68;;;;;;;;;;5046428;28;20188;-71
2021/09/17 05:45:50;;;;;;;3.17;0.88;;;;;;;;;;5054478;28;20550;-71
2021/09/17 05:48:34;;;;;;;1.00;0.70;;;;;;;;;;5066517;28;20122;-74
2021/09/17 05:51:19;;;;;;;1.48;0.73;;;;;;;;;;5064510;28;20090;-71
2021/09/17 05:54:03;;;;;;;0.95;0.75;;;;;;;;;;5063118;28;20043;-71
2021/09/17 05:56:48;;;;;;;1.23;0.70;;;;;;;;;;5035912;28;20040;-72
2021/09/17 05:59:33;;;;;;;1.13;0.70;;;;;;;;;;5039512;28;20484;-71
2021/09/17 06:02:18;;;;;;;1.35;0.80;;;;;;;;;;5026356;28;20124;-71
2021/09/17 06:05:03;;;;;;;1.25;0.80;;;;;;;;;;5046576;28;20143;-71
2021/09/17 06:07:48;;;;;;;0.70;0.70;;;;;;;;;;5066665;28;20035;-71
2021/09/17 06:10:32;;;;;;;1.20;0.70;;;;;;;;;;5051553;28;20458;-71
2021/09/17 06:13:17;;;;;;;1.13;0.70;;;;;;;;;;5066208;28;20087;-71
2021/09/17 06:16:02;;;;;;;1.48;0.70;;;;;;;;;;5063458;28;20488;-71
2021/09/17 06:18:47;;;;;;;1.25;0.80;;;;;;;;;;5066219;28;20048;-71
2021/09/17 06:21:32;;;;;;;1.48;0.80;;;;;;;;;;5065076;28;20138;-71
2021/09/17 06:24:16;;;;;;;1.35;0.70;;;;;;;;;;5064284;28;20042;-71
2021/09/17 06:27:01;;;;;;;1.58;0.77;;;;;;;;;;5047041;28;20059;-71
2021/09/17 06:29:46;;;;;;;0.88;0.70;;;;;;;;;;5051555;28;20035;-71
2021/09/17 06:32:30;;;;;;;0.85;0.60;;;;;;;;;;5035655;28;20563;-71
2021/09/17 06:35:15;;;;;;;2.17;1.02;;;;;;;;;;5053198;28;20037;-72
2021/09/17 06:38:00;;;;;;;1.83;0.70;;;;;;;;;;5065872;28;20417;-72
2021/09/17 06:40:44;;;;;;;2.65;0.98;;;;;;;;;;5049065;28;20100;-70
2021/09/17 06:43:29;;;;;;;1.50;0.90;;;;;;;;;;5047117;28;20505;-71
2021/09/17 06:46:14;;;;;;;2.80;1.00;;;;;;;;;;5037897;28;20560;-73
2021/09/17 06:48:59;;;;;;;1.00;0.80;;;;;;;;;;5036052;28;20039;-71
2021/09/17 06:51:43;;;;;;;2.92;1.05;;;;;;;;;;5012371;28;20684;-71
2021/09/17 06:54:28;;;;;;;4.20;0.90;;;;;;;;;;5034550;28;20047;-72
2021/09/17 06:57:12;;;;;;;0.82;0.80;;;;;;;;;;5066427;28;20061;-72
2021/09/17 06:59:57;;;;;;;2.60;1.55;;;;;;;;;;5065872;28;20044;-73
2021/09/17 07:02:41;;;;;;;1.73;0.70;;;;;;;;;;5067019;28;20035;-72
2021/09/17 07:05:26;;;;;;;1.88;1.08;;;;;;;;;;5049282;28;20095;-74
2021/09/17 07:08:11;;;;;;;1.40;0.88;;;;;;;;;;5026514;28;20095;-72
2021/09/17 07:10:56;;;;;;;1.40;0.80;;;;;;;;;;5042736;28;20147;-72
2021/09/17 07:13:41;;;;;;;2.00;0.90;;;;;;;;;;5049805;28;20052;-72
2021/09/17 07:16:26;;;;;;;3.88;0.90;;;;;;;;;;5050230;28;20402;-72
2021/09/17 07:19:10;;;;;;;3.47;1.15;;;;;;;;;;5049302;28;20044;-72
2021/09/17 07:21:55;;;;;;;3.63;1.00;;;;;;;;;;5016184;28;20039;-72
2021/09/17 07:24:39;;;;;;;2.28;1.00;;;;;;;;;;5047260;28;20043;-72
2021/09/17 07:27:24;;;;;;;2.90;1.20;;;;;;;;;;5049752;28;20052;-72
2021/09/17 07:30:09;;;;;;;2.08;1.00;;;;;;;;;;5050312;28;20086;-71
2021/09/17 07:32:54;;;;;;;1.58;0.93;;;;;;;;;;5049920;28;20052;-72
2021/09/17 07:35:39;;;;;;;2.28;0.93;;;;;;;;;;5055888;28;20074;-71
2021/09/17 07:38:23;;;;;;;1.77;0.95;;;;;;;;;;5069225;28;20095;-74
2021/09/17 07:41:08;;;;;;;1.55;0.80;;;;;;;;;;5051066;28;20124;-71
2021/09/17 07:43:52;;;;;;;2.47;0.90;;;;;;;;;;5068899;28;20158;-71
2021/09/17 07:46:37;;;;;;;2.35;1.13;;;;;;;;;;5054059;28;20094;-73
2021/09/17 07:49:21;;;;;;;1.95;1.00;;;;;;;;;;5068582;28;20082;-71
2021/09/17 07:52:06;;;;;;;1.70;1.00;;;;;;;;;;5046663;28;20421;-71
2021/09/17 07:54:51;;;;;;;2.08;1.00;;;;;;;;;;5045461;28;20047;-72
2021/09/17 07:57:35;;;;;;;2.90;1.30;;;;;;;;;;5045769;28;20058;-71
2021/09/17 08:00:21;;;;;;;5.32;1.10;;;;;;;;;;5046833;28;20515;-72
2021/09/17 08:03:05;;;;;;;3.78;1.60;;;;;;;;;;5048302;28;20109;-71
2021/09/17 08:05:50;;;;;;;2.17;1.00;;;;;;;;;;5047939;28;20128;-71
2021/09/17 08:08:35;;;;;;;2.67;0.90;;;;;;;;;;5029486;28;20064;-72
2021/09/17 08:11:19;;;;;;;1.75;1.00;;;;;;;;;;5047916;28;20035;-72
2021/09/17 08:14:04;;;;;;;2.30;0.90;;;;;;;;;;5047133;28;20047;-72
2021/09/17 08:16:49;;;;;;;2.78;1.27;;;;;;;;;;5030700;28;20452;-72
2021/09/17 08:19:33;;;;;;;2.50;1.02;;;;;;;;;;5047988;28;20090;-72
2021/09/17 08:22:18;;;;;;;1.75;0.80;;;;;;;;;;5037521;28;20043;-71
2021/09/17 08:25:02;;;;;;;2.88;1.10;;;;;;;;;;5045590;28;20079;-72
2021/09/17 08:27:47;;;;;;;2.55;1.15;;;;;;;;;;5049112;28;20078;-72
2021/09/17 08:30:31;;;;;;;4.93;1.48;;;;;;;;;;5027926;28;20797;-71
2021/09/17 08:33:16;;;;;;;3.10;0.90;;;;;;;;;;5039328;28;20044;-72
2021/09/17 08:36:01;;;;;;;3.63;1.30;;;;;;;;;;5046448;28;20036;-72
2021/09/17 08:38:46;;;;;;;3.88;1.55;;;;;;;;;;5029009;28;20047;-75
2021/09/17 08:41:30;;;;;;;3.53;1.40;;;;;;;;;;5043817;28;20059;-72
2021/09/17 08:44:16;;;;;;;2.72;1.10;;;;;;;;;;5033730;28;20142;-72
2021/09/17 08:47:01;;;;;;;6.68;1.42;;;;;;;;;;5047390;28;20090;-72
2021/09/17 08:49:46;;;;;;;3.25;1.17;;;;;;;;;;5046289;28;20048;-71
2021/09/17 08:52:31;;;;;;;3.53;1.10;;;;;;;;;;5047485;28;20473;-72
2021/09/17 08:55:16;;;;;;;1.80;1.00;;;;;;;;;;5033490;28;20098;-72
2021/09/17 08:58:01;;;;;;;2.53;1.05;;;;;;;;;;5047399;28;20098;-71
2021/09/17 09:00:46;;;;;;;2.38;1.05;;;;;;;;;;5047102;28;20035;-71
2021/09/17 09:03:34;;;;;;;4.00;1.23;;;;;;;;;;5046993;28;20398;-72
2021/09/17 09:06:20;;;;;;;2.28;1.00;;;;;;;;;;5028692;28;20536;-72
2021/09/17 09:09:17;;;;;;;3.60;1.20;;;;;;;;;;5044228;28;20512;-72
2021/09/17 09:12:02;;;;;;;4.20;1.10;;;;;;;;;;5063110;28;20079;-72
2021/09/17 09:14:47;;;;;;;3.70;1.33;;;;;;;;;;5019383;28;20048;-72
2021/09/17 09:17:35;;;;;;;2.00;1.10;;;;;;;;;;5044187;28;20146;-72
2021/09/17 09:20:23;;;;;;;1.60;0.82;;;;;;;;;;5047046;28;20083;-72
2021/09/17 09:23:10;;;;;;;2.78;1.20;;;;;;;;;;5047945;28;20498;-72
2021/09/17 09:26:06;;;;;;;2.50;1.10;;;;;;;;;;5047901;28;20274;-71
2021/09/17 09:28:50;;;;;;;2.38;1.08;;;;;;;;;;5047107;28;20140;-72
2021/09/17 09:31:41;;;;;;;3.05;1.70;;;;;;;;;;5045779;28;20548;-72
2021/09/17 09:34:45;;;;;;;3.53;1.15;;;;;;;;;;5027698;28;20048;-73
2021/09/17 09:37:30;;;;;;;1.80;1.08;;;;;;;;;;5043874;28;20137;-71
2021/09/17 09:40:17;;;;;;;2.03;0.98;;;;;;;;;;5042996;28;20043;-71
2021/09/17 09:43:02;;;;;;;2.33;1.05;;;;;;;;;;5028712;28;20079;-71
2021/09/17 09:45:46;;;;;;;1.92;0.90;;;;;;;;;;5036104;28;20426;-72
2021/09/17 09:48:31;;;;;;;1.50;0.90;;;;;;;;;;5044383;28;20059;-71
2021/09/17 09:51:15;;;;;;;1.88;0.80;;;;;;;;;;5043864;28;20043;-72
2021/09/17 09:54:00;;;;;;;1.67;0.95;;;;;;;;;;5044708;28;20044;-72
2021/09/17 09:56:45;;;;;;;2.85;1.13;;;;;;;;;;5042406;28;20090;-72
2021/09/17 09:59:31;;;;;;;1.95;1.00;;;;;;;;;;5042644;28;20075;-72
2021/09/17 10:02:15;;;;;;;1.88;1.00;;;;;;;;;;5043188;28;20087;-70
2021/09/17 10:05:00;;;;;;;1.30;0.90;;;;;;;;;;5028644;28;20043;-70
2021/09/17 10:07:45;;;;;;;1.58;1.00;;;;;;;;;;5042969;28;20166;-70
2021/09/17 10:10:29;;;;;;;2.28;1.08;;;;;;;;;;5042844;28;20115;-70
2021/09/17 10:13:14;;;;;;;1.67;0.80;;;;;;;;;;5043489;28;20095;-70
2021/09/17 10:15:59;;;;;;;2.75;0.90;;;;;;;;;;5044422;28;20118;-70
2021/09/17 10:18:44;;;;;;;1.95;1.00;;;;;;;;;;5042655;28;20039;-73
2021/09/17 10:21:44;;;;;;;1.30;0.93;;;;;;;;;;5042335;28;20146;-70
2021/09/17 10:24:38;;;;;;;1.83;1.00;;;;;;;;;;5036123;28;20086;-70
2021/09/17 10:27:27;;;;;;;3.58;1.15;;;;;;;;;;5042832;28;20750;-70
2021/09/17 10:30:13;;;;;;;1.75;0.90;;;;;;;;;;5042723;28;20036;-70
2021/09/17 10:32:58;;;;;;;1.75;1.00;;;;;;;;;;5040114;28;20118;-70
2021/09/17 10:35:44;;;;;;;2.08;1.17;;;;;;;;;;5023188;28;20028;-70
2021/09/17 10:38:29;;;;;;;2.53;1.05;;;;;;;;;;5037014;28;20043;-70
2021/09/17 10:41:14;;;;;;;1.80;0.90;;;;;;;;;;5016080;28;20163;-71
2021/09/17 10:43:59;;;;;;;1.25;1.00;;;;;;;;;;5025557;28;20430;-70
2021/09/17 10:46:44;;;;;;;2.45;0.77;;;;;;;;;;5046736;28;20035;-70
2021/09/17 10:49:48;;;;;;;1.38;0.95;;;;;;;;;;5047339;28;20078;-71
2021/09/17 10:52:40;;;;;;;3.25;1.00;;;;;;;;;;5047440;28;20554;-73
2021/09/17 10:55:43;;;;;;;1.45;1.00;;;;;;;;;;5046580;28;20091;-70
2021/09/17 10:58:29;;;;;;;1.83;1.20;;;;;;;;;;5048209;28;20043;-70
2021/09/17 11:01:15;;;;;;;2.10;1.02;;;;;;;;;;5045858;28;20044;-71
2021/09/17 11:04:00;;;;;;;3.20;1.30;;;;;;;;;;5046438;28;20040;-71
2021/09/17 11:06:44;;;;;;;2.30;1.08;;;;;;;;;;5047584;28;20047;-70
2021/09/17 11:09:48;;;;;;;2.75;1.05;;;;;;;;;;5026817;28;20060;-70
2021/09/17 11:12:37;;;;;;;4.32;1.42;;;;;;;;;;5037679;28;20047;-71
2021/09/17 11:15:21;;;;;;;1.80;1.30;;;;;;;;;;5046827;28;20083;-70
2021/09/17 11:18:15;;;;;;;2.20;1.33;;;;;;;;;;5031957;28;20467;-70
2021/09/17 11:21:14;;;;;;;3.30;1.52;;;;;;;;;;5045162;28;20040;-71
2021/09/17 11:23:59;;;;;;;2.78;1.70;;;;;;;;;;5045142;28;20067;-71
2021/09/17 11:26:45;;;;;;;3.05;1.55;;;;;;;;;;5039962;28;20044;-72
2021/09/17 11:29:29;;;;;;;2.53;1.50;;;;;;;;;;5045616;28;20071;-71
2021/09/17 11:32:15;;;;;;;2.60;1.60;;;;;;;;;;5022075;28;20053;-71
2021/09/17 11:35:09;;;;;;;3.33;1.80;;;;;;;;;;5045496;28;20154;-72
2021/09/17 11:37:55;;;;;;;3.13;1.83;;;;;;;;;;5032451;28;20670;-71
2021/09/17 11:40:49;;;;;;;2.67;1.92;;;;;;;;;;5045606;28;20063;-71
2021/09/17 11:43:41;;;;;;;4.30;1.85;;;;;;;;;;5022434;28;20449;-72
2021/09/17 11:46:26;;;;;;;3.95;1.95;;;;;;;;;;5045857;28;20560;-72
2021/09/17 11:49:11;;;;;;;3.13;2.00;;;;;;;;;;5045802;28;20104;-73
2021/09/17 11:52:00;;;;;;;3.42;1.85;;;;;;;;;;5045394;28;20880;-71
2021/09/17 11:54:57;;;;;;;3.88;2.03;;;;;;;;;;5035002;28;20212;-73
2021/09/17 11:57:43;;;;;;;4.32;2.20;;;;;;;;;;5045997;28;20040;-72
2021/09/17 12:00:28;;;;;;;3.22;2.30;;;;;;;;;;5046270;28;20056;-71
2021/09/17 12:03:13;;;;;;;2.75;2.25;;;;;;;;;;5026941;28;20059;-71
2021/09/17 12:05:58;;;;;;;3.80;2.25;;;;;;;;;;5045066;28;20051;-71
2021/09/17 12:08:42;;;;;;;4.32;2.95;;;;;;;;;;5034945;28;20508;-71
2021/09/17 12:11:27;;;;;;;3.63;2.55;;;;;;;;;;5044704;28;20116;-71
2021/09/17 12:14:12;;;;;;;3.95;2.60;;;;;;;;;;5040570;28;20110;-71
2021/09/17 12:17:03;;;;;;;3.97;2.97;;;;;;;;;;5027535;28;20044;-70
2021/09/17 12:19:54;;;;;;;3.92;2.97;;;;;;;;;;5031241;28;20040;-74
2021/09/17 12:22:44;;;;;;;4.28;2.80;;;;;;;;;;5045521;28;20489;-71
2021/09/17 12:25:29;;;;;;;3.05;2.50;;;;;;;;;;5044931;28;20090;-71
2021/09/17 12:28:21;;;;;;;5.03;2.60;;;;;;;;;;5045167;28;20130;-71
2021/09/17 12:31:05;;;;;;;3.47;2.28;;;;;;;;;;5044916;28;20083;-71
2021/09/17 12:33:50;;;;;;;4.97;2.58;;;;;;;;;;5046082;28;20071;-71
2021/09/17 12:36:35;;;;;;;4.57;2.47;;;;;;;;;;5045982;28;20106;-71
2021/09/17 12:39:21;;;;;;;4.40;2.20;;;;;;;;;;5046217;28;20063;-71
2021/09/17 12:42:06;;;;;;;3.22;2.30;;;;;;;;;;5045042;28;20067;-71
2021/09/17 12:44:52;;;;;;;3.17;2.35;;;;;;;;;;5043201;28;20738;-70
2021/09/17 12:47:37;;;;;;;3.00;2.28;;;;;;;;;;5044725;28;20568;-71
2021/09/17 12:50:30;;;;;;;4.35;2.60;;;;;;;;;;5043962;28;20106;-71
2021/09/17 12:53:16;;;;;;;3.47;2.50;;;;;;;;;;5045264;28;20051;-70
2021/09/17 12:56:10;;;;;;;3.47;2.47;;;;;;;;;;5044337;28;20044;-70
2021/09/17 12:59:11;;;;;;;3.60;2.33;;;;;;;;;;5029672;28;20047;-71
2021/09/17 13:01:56;;;;;;;3.78;2.35;;;;;;;;;;5044559;28;20543;-71
2021/09/17 13:04:40;;;;;;;4.78;2.50;;;;;;;;;;5045660;28;20099;-70
2021/09/17 13:07:25;;;;;;;4.43;2.25;;;;;;;;;;5044178;28;20068;-71
2021/09/17 13:10:09;;;;;;;4.53;2.42;;;;;;;;;;5044611;28;20098;-71
2021/09/17 13:12:54;;;;;;;4.10;2.22;;;;;;;;;;5030317;28;20048;-71
2021/09/17 13:15:40;;;;;;;3.80;2.40;;;;;;;;;;5030337;28;20414;-71
2021/09/17 13:18:24;;;;;;;4.22;2.47;;;;;;;;;;5030009;28;20036;-72
2021/09/17 13:21:09;;;;;;;4.32;2.60;;;;;;;;;;5045651;28;20128;-71
2021/09/17 13:23:53;;;;;;;4.32;2.60;;;;;;;;;;5045200;28;20039;-71
2021/09/17 13:26:38;;;;;;;3.45;2.30;;;;;;;;;;5044375;28;20051;-71
2021/09/17 13:29:22;;;;;;;4.22;2.70;;;;;;;;;;5043785;28;20059;-71
2021/09/17 13:32:07;;;;;;;3.10;2.35;;;;;;;;;;5043401;28;20055;-71
2021/09/17 13:34:52;;;;;;;3.22;2.40;;;;;;;;;;5044860;28;20470;-70
2021/09/17 13:37:38;;;;;;;4.10;2.50;;;;;;;;;;5043783;28;20051;-70
2021/09/17 13:40:23;;;;;;;4.78;2.58;;;;;;;;;;5042504;28;20094;-70
2021/09/17 13:43:07;;;;;;;3.45;2.55;;;;;;;;;;5044514;28;20048;-70
2021/09/17 13:45:52;;;;;;;3.53;2.50;;;;;;;;;;5043496;28;20044;-70
2021/09/17 13:48:37;;;;;;;4.18;2.40;;;;;;;;;;5038490;28;20513;-69
2021/09/17 13:51:22;;;;;;;4.38;2.42;;;;;;;;;;5044196;28;20063;-70
2021/09/17 13:54:06;;;;;;;3.40;2.40;;;;;;;;;;5043174;28;20044;-70
2021/09/17 13:56:50;;;;;;;3.35;2.45;;;;;;;;;;5043536;28;20414;-70
2021/09/17 13:59:37;;;;;;;3.45;2.72;;;;;;;;;;5043517;28;20040;-70
2021/09/17 14:02:23;;;;;;;3.38;2.50;;;;;;;;;;5020326;28;20403;-70
2021/09/17 14:05:09;;;;;;;4.07;2.47;;;;;;;;;;5041721;28;20047;-70
2021/09/17 14:07:54;;;;;;;4.55;2.67;;;;;;;;;;5043641;28;20791;-70
2021/09/17 14:10:38;;;;;;;4.13;2.47;;;;;;;;;;5042846;28;20086;-70
2021/09/17 14:13:23;;;;;;;3.53;2.40;;;;;;;;;;5024948;28;20047;-70
2021/09/17 14:16:07;;;;;;;3.65;2.55;;;;;;;;;;5043489;28;20530;-71
2021/09/17 14:18:52;;;;;;;3.28;2.30;;;;;;;;;;5043461;28;20062;-70
2021/09/17 14:21:37;;;;;;;4.88;2.58;;;;;;;;;;5042864;28;20040;-70
2021/09/17 14:24:21;;;;;;;2.97;2.30;;;;;;;;;;5042892;28;20474;-70
2021/09/17 14:27:09;;;;;;;3.90;2.40;;;;;;;;;;5044036;28;20048;-71
2021/09/17 14:29:54;;;;;;;4.05;2.42;;;;;;;;;;5041831;28;20039;-71
2021/09/17 14:32:39;;;;;;;4.82;2.58;;;;;;;;;;5043418;28;20254;-70
2021/09/17 14:35:23;;;;;;;3.33;2.30;;;;;;;;;;5043808;28;20094;-70
2021/09/17 14:38:09;;;;;;;3.92;2.30;;;;;;;;;;5042748;28;20114;-70
2021/09/17 14:40:54;;;;;;;3.38;2.58;;;;;;;;;;5044267;28;20051;-70
2021/09/17 14:43:39;;;;;;;2.72;2.22;;;;;;;;;;5042766;28;20719;-71
2021/09/17 14:46:24;;;;;;;3.78;2.20;;;;;;;;;;5042347;28;20151;-71
2021/09/17 14:49:08;;;;;;;4.13;2.25;;;;;;;;;;5043301;28;20044;-72
2021/09/17 14:51:53;;;;;;;2.95;2.25;;;;;;;;;;5042584;28;20148;-72
2021/09/17 14:54:37;;;;;;;4.57;2.30;;;;;;;;;;5042585;28;20056;-72
2021/09/17 14:57:22;;;;;;;4.40;2.45;;;;;;;;;;5042562;28;20155;-72
2021/09/17 15:00:07;;;;;;;4.38;2.35;;;;;;;;;;5042922;28;20036;-72
2021/09/17 15:02:52;;;;;;;5.38;2.53;;;;;;;;;;5042120;28;20860;-71
2021/09/17 15:05:37;;;;;;;4.20;2.38;;;;;;;;;;5044094;28;20071;-71
2021/09/17 15:08:22;;;;;;;4.13;2.40;;;;;;;;;;5045516;28;20035;-71
2021/09/17 15:11:07;;;;;;;3.65;2.38;;;;;;;;;;5041979;28;20052;-71
2021/09/17 15:13:51;;;;;;;5.07;2.40;;;;;;;;;;5042000;28;20114;-71
2021/09/17 15:16:36;;;;;;;4.43;2.28;;;;;;;;;;5033967;28;20071;-71
2021/09/17 15:19:21;;;;;;;3.28;2.42;;;;;;;;;;5032989;28;20166;-71
2021/09/17 15:22:05;;;;;;;5.65;2.67;;;;;;;;;;5041877;28;20040;-72
2021/09/17 15:24:50;;;;;;;3.20;2.15;;;;;;;;;;5043587;28;20092;-71
2021/09/17 15:27:35;;;;;;;3.22;2.25;;;;;;;;;;5053475;28;20513;-71
2021/09/17 15:30:19;;;;;;;4.30;2.28;;;;;;;;;;5061008;28;20043;-72
2021/09/17 15:33:04;;;;;;;5.50;2.38;;;;;;;;;;5027923;28;20082;-71
2021/09/17 15:35:49;;;;;;;4.03;2.60;;;;;;;;;;5046233;28;20055;-72
2021/09/17 15:38:33;;;;;;;3.47;2.05;;;;;;;;;;5044345;28;20505;-72
2021/09/17 15:41:18;;;;;;;4.28;2.35;;;;;;;;;;5045683;28;20489;-72
2021/09/17 15:44:03;;;;;;;6.28;2.30;;;;;;;;;;5052643;28;20064;-70
2021/09/17 15:46:48;;;;;;;3.65;2.35;;;;;;;;;;5050033;28;20585;-71
2021/09/17 15:49:32;;;;;;;4.43;2.47;;;;;;;;;;5036286;28;20099;-71
2021/09/17 15:52:17;;;;;;;3.47;2.38;;;;;;;;;;5045244;28;20048;-71
2021/09/17 15:55:02;;;;;;;3.53;2.13;;;;;;;;;;5043204;28;20440;-73
2021/09/17 15:57:46;;;;;;;3.42;2.20;;;;;;;;;;5053400;28;20032;-71
2021/09/17 16:00:31;;;;;;;3.80;2.42;;;;;;;;;;5036103;28;20087;-71
2021/09/17 16:03:15;;;;;;;3.90;2.10;;;;;;;;;;5032849;28;20091;-72
2021/09/17 16:06:00;;;;;;;3.10;2.08;;;;;;;;;;5052298;28;20047;-71
2021/09/17 16:08:44;;;;;;;4.20;2.40;;;;;;;;;;5049042;28;20759;-71
2021/09/17 16:11:29;;;;;;;4.70;2.40;;;;;;;;;;5028325;28;20044;-71
2021/09/17 16:14:13;;;;;;;3.15;2.10;;;;;;;;;;5045450;28;20064;-71
2021/09/17 16:16:58;;;;;;;3.97;2.25;;;;;;;;;;5051215;28;20051;-71
2021/09/17 16:19:43;;;;;;;4.03;2.40;;;;;;;;;;5061274;28;20121;-71
2021/09/17 16:22:28;;;;;;;5.90;2.30;;;;;;;;;;5041741;28;20039;-71
2021/09/17 16:25:12;;;;;;;5.40;2.30;;;;;;;;;;5044844;28;20052;-71
2021/09/17 16:27:57;;;;;;;3.72;2.13;;;;;;;;;;5046044;28;20536;-71
2021/09/17 16:30:42;;;;;;;4.82;2.15;;;;;;;;;;5065203;28;20086;-71
2021/09/17 16:33:26;;;;;;;3.70;2.30;;;;;;;;;;5046653;28;20721;-71